Terminal Aerodrome Forecast
Issued by NWS

Home | Current Version | Previous Version | Text Only | Print | Product List | Glossary On
Versions: 1 2 3 4 5 6 7 8 9 10 11 12 13 14 15 16 17 18 19 20 21 22 23 24 25 26 27 28
000
FTUS41 KPHI 032335
TAFMIV
TAF
KMIV 032335Z 0400/0424 14004KT P6SM BKN100
     FM040700 10003KT 6SM -SHRA SCT025 OVC070
     FM041300 08006KT 3SM SHRA OVC025
     FM041900 06008KT P6SM BKN050
     FM042300 10006KT P6SM SCT050=

USA.gov is the U.S. government's official web portal to all federal, state and local government web resources and services.